CNS weather

Cairns International Airport
Cairns, Queensland, Australia

Public forecast

Using degrees Celsius for public forecast. Weather courtesy of forecast.io.

METAR (pilot weather report)

Retrieved 2018/05/28 06:30 UTC (27 minutes ago):

YBCS 280630Z 13014KT 9999 FEW030 SCT070 25/19 Q1014 NOSIG

TAF (pilot weather forecast)

Retrieved 2018/05/28 06:46 UTC (11 minutes ago):

TAF YBCS 280542Z 2806/2906 13017KT 9999 -SHRA FEW030 SCT050 FM280800 16010KT 9999 -SHRA FEW025 SCT040 FM290100 13017KT 9999 -SHRA FEW030 SCT050